Time;durP1;ratioP1;P1;durP2;ratioP2;P2;SDS_P1;SDS_P2;PMS_P1;PMS_P2;Temp;Humidity;BMP_temperature;BMP_pressure;BME280_temperature;BME280_humidity;BME280_pressure;Samples;Min_cycle;Max_cycle;Signal;HPM_P1;HPM_P2
2023/01/19 00:08:50;;;;;;;35.75;15.68;;;;;;;-1.30;100.00;99326.03;20694449;28;20066;-70
2023/01/19 00:18:51;;;;;;;30.77;15.02;;;;;;;-1.24;100.00;99339.84;20686141;28;20061;-71
2023/01/19 00:28:52;;;;;;;30.40;15.32;;;;;;;-1.26;100.00;99332.09;20694750;28;20111;-71
2023/01/19 00:38:53;;;;;;;33.22;15.75;;;;;;;-1.26;100.00;99349.19;20682197;28;20090;-70
2023/01/19 00:48:55;;;;;;;31.60;14.77;;;;;;;-1.20;100.00;99357.00;20694065;28;20053;-70
2023/01/19 00:58:56;;;;;;;30.73;16.05;;;;;;;-1.11;100.00;99357.97;20682402;28;20060;-69
2023/01/19 01:08:57;;;;;;;29.50;15.30;;;;;;;-0.99;100.00;99364.16;20690711;28;20105;-70
2023/01/19 01:18:58;;;;;;;29.50;14.75;;;;;;;-0.78;100.00;99367.84;20682935;28;20073;-68
2023/01/19 01:29:00;;;;;;;25.70;13.93;;;;;;;-0.70;100.00;99367.97;20687898;28;20058;-70
2023/01/19 01:39:01;;;;;;;29.20;15.05;;;;;;;-0.75;100.00;99368.75;20680573;28;20050;-70
2023/01/19 01:49:02;;;;;;;29.60;15.85;;;;;;;-0.82;100.00;99376.38;20683425;28;20310;-69
2023/01/19 01:59:04;;;;;;;34.78;16.27;;;;;;;-0.80;100.00;99384.97;20684160;28;20058;-68
2023/01/19 02:19:25;;;;;;;31.48;15.90;;;;;;;-0.62;100.00;99374.09;20681380;28;20504;-69
2023/01/19 02:29:27;;;;;;;31.55;15.82;;;;;;;-0.78;100.00;99380.72;20674079;28;20357;-69
2023/01/19 02:39:28;;;;;;;30.50;16.13;;;;;;;-0.74;100.00;99378.19;20685096;28;20567;-69
2023/01/19 02:49:29;;;;;;;38.10;17.88;;;;;;;-0.75;100.00;99374.75;20674149;28;20053;-69
2023/01/19 02:59:30;;;;;;;32.30;17.52;;;;;;;-0.66;100.00;99381.72;20686239;28;20298;-69
2023/01/19 03:09:32;;;;;;;36.83;18.48;;;;;;;-0.61;100.00;99377.50;20681860;28;20081;-68
2023/01/19 03:19:33;;;;;;;36.45;17.70;;;;;;;-0.64;100.00;99365.47;20681751;28;20495;-68
2023/01/19 03:29:35;;;;;;;38.47;18.30;;;;;;;-0.56;100.00;99383.56;20682934;28;20773;-68
2023/01/19 03:39:36;;;;;;;37.00;19.13;;;;;;;-0.42;100.00;99392.31;20678177;28;20058;-68
2023/01/19 03:49:37;;;;;;;39.13;18.35;;;;;;;-0.27;100.00;99399.34;20685717;28;20609;-68
2023/01/19 03:59:38;;;;;;;34.17;17.60;;;;;;;-0.25;100.00;99405.38;20674623;28;20592;-68
2023/01/19 04:09:40;;;;;;;40.70;17.90;;;;;;;-0.24;100.00;99403.66;20685399;28;20058;-69
2023/01/19 04:29:59;;;;;;;39.50;18.58;;;;;;;-0.62;100.00;99404.06;13314962;26;20049;-80
2023/01/19 04:40:00;;;;;;;39.15;19.05;;;;;;;-0.55;100.00;99416.16;20784491;28;20421;-78
2023/01/19 04:50:01;;;;;;;39.13;18.65;;;;;;;-0.48;100.00;99427.34;20787689;28;20060;-78
2023/01/19 05:00:03;;;;;;;41.83;19.25;;;;;;;-0.40;100.00;99436.91;20778885;28;20054;-78
2023/01/19 05:10:04;;;;;;;38.55;17.83;;;;;;;-0.20;100.00;99449.16;20774641;28;20302;-78
2023/01/19 05:20:05;;;;;;;39.92;18.38;;;;;;;-0.11;100.00;99433.81;20781521;28;20042;-78
2023/01/19 05:30:07;;;;;;;36.17;17.42;;;;;;;-0.19;100.00;99430.28;20749307;28;20407;-78
2023/01/19 05:40:08;;;;;;;36.15;17.48;;;;;;;-0.40;100.00;99421.47;20774712;28;20042;-78
2023/01/19 05:50:09;;;;;;;30.80;15.52;;;;;;;-0.50;100.00;99427.34;20769304;28;20105;-78
2023/01/19 06:00:11;;;;;;;29.67;13.95;;;;;;;-0.33;100.00;99438.72;20771384;28;20057;-78
2023/01/19 06:10:12;;;;;;;32.17;15.95;;;;;;;-0.26;100.00;99440.50;20763901;28;20190;-78
2023/01/19 06:20:14;;;;;;;32.33;15.10;;;;;;;-0.18;100.00;99452.63;20741385;28;20112;-78
2023/01/19 06:30:16;;;;;;;33.95;15.43;;;;;;;0.01;100.00;99459.72;20779280;28;20049;-78
2023/01/19 06:40:17;;;;;;;33.00;15.57;;;;;;;0.05;100.00;99466.63;20751047;28;20046;-78
2023/01/19 06:50:18;;;;;;;27.15;13.77;;;;;;;-0.03;100.00;99473.38;20758655;28;20050;-78
2023/01/19 07:00:20;;;;;;;27.52;13.25;;;;;;;0.08;100.00;99482.09;20782380;28;20104;-79
2023/01/19 07:10:22;;;;;;;32.97;14.65;;;;;;;0.05;100.00;99500.09;20751833;28;20049;-78
2023/01/19 07:20:23;;;;;;;27.02;13.93;;;;;;;-0.01;100.00;99492.25;20744062;28;20406;-79
2023/01/19 07:30:25;;;;;;;39.72;16.77;;;;;;;-0.14;100.00;99500.69;20772376;28;20049;-78
2023/01/19 07:40:27;;;;;;;30.05;15.25;;;;;;;-0.06;100.00;99510.22;20765543;28;20141;-78
2023/01/19 07:50:28;;;;;;;34.08;14.75;;;;;;;0.15;100.00;99519.94;20753430;28;20050;-79
2023/01/19 08:00:30;;;;;;;30.80;14.95;;;;;;;0.20;100.00;99533.72;20754006;28;20468;-79
2023/01/19 08:10:32;;;;;;;25.85;13.45;;;;;;;0.36;100.00;99539.03;20801657;28;20101;-79
2023/01/19 08:20:34;;;;;;;27.90;13.15;;;;;;;0.30;100.00;99549.28;20773763;28;20053;-79
2023/01/19 08:30:37;;;;;;;24.60;12.85;;;;;;;0.38;100.00;99545.06;20799656;28;20065;-80
2023/01/19 08:40:38;;;;;;;22.73;11.52;;;;;;;0.50;100.00;99542.63;20801778;28;20054;-79
2023/01/19 08:50:39;;;;;;;23.58;12.27;;;;;;;0.59;100.00;99549.59;20785790;28;20041;-79
2023/01/19 09:00:41;;;;;;;24.55;11.88;;;;;;;0.64;100.00;99553.94;20793771;28;20096;-79
2023/01/19 09:10:42;;;;;;;23.77;12.38;;;;;;;0.81;100.00;99563.56;20787216;28;21198;-79
2023/01/19 09:20:43;;;;;;;28.67;14.13;;;;;;;0.83;100.00;99561.88;20781352;28;20572;-78
2023/01/19 09:30:45;;;;;;;38.00;17.35;;;;;;;0.73;100.00;99573.78;20760640;28;20041;-78
2023/01/19 09:40:46;;;;;;;28.05;13.55;;;;;;;0.86;100.00;99564.47;20764275;28;20046;-78
2023/01/19 09:50:47;;;;;;;29.90;14.68;;;;;;;0.86;100.00;99577.34;20739761;28;20053;-78
2023/01/19 10:00:49;;;;;;;30.48;13.90;;;;;;;0.94;100.00;99570.56;20777424;28;20494;-78
2023/01/19 10:10:50;;;;;;;26.92;13.90;;;;;;;1.13;100.00;99569.88;20781986;28;20505;-78
2023/01/19 10:20:52;;;;;;;30.25;12.77;;;;;;;1.05;100.00;99563.78;20793529;28;20083;-77
2023/01/19 10:30:53;;;;;;;25.02;12.73;;;;;;;1.12;100.00;99572.44;20767112;28;20506;-78
2023/01/19 10:40:54;;;;;;;27.75;12.73;;;;;;;1.08;100.00;99560.38;20746138;28;20045;-78
2023/01/19 10:50:57;;;;;;;29.45;14.70;;;;;;;1.50;100.00;99570.19;20767632;28;20529;-79
2023/01/19 11:00:58;;;;;;;22.73;12.13;;;;;;;1.82;100.00;99567.84;20768661;28;20062;-78
2023/01/19 11:11:01;;;;;;;24.15;12.45;;;;;;;2.00;100.00;99564.47;20742773;28;20050;-79
2023/01/19 11:21:02;;;;;;;21.92;11.57;;;;;;;1.75;100.00;99574.66;20763769;28;20042;-80
2023/01/19 11:31:03;;;;;;;20.77;10.95;;;;;;;1.93;100.00;99583.38;20747142;28;20399;-79
2023/01/19 11:41:05;;;;;;;22.40;10.00;;;;;;;2.13;100.00;99570.56;20763047;28;20053;-78
2023/01/19 11:51:07;;;;;;;31.05;13.93;;;;;;;2.05;100.00;99578.25;20745731;28;20415;-79
2023/01/19 12:01:08;;;;;;;20.45;10.50;;;;;;;1.95;100.00;99566.16;20738880;28;20611;-79
2023/01/19 12:11:09;;;;;;;29.08;13.63;;;;;;;1.86;100.00;99566.09;20772313;28;20502;-79
2023/01/19 12:21:11;;;;;;;24.70;11.82;;;;;;;1.89;100.00;99573.88;20749706;28;20060;-79
2023/01/19 12:31:12;;;;;;;22.52;11.55;;;;;;;1.99;100.00;99552.44;20771605;28;20053;-80
2023/01/19 12:41:13;;;;;;;45.50;22.27;;;;;;;2.18;100.00;99548.22;20766120;28;20064;-79
2023/01/19 12:51:15;;;;;;;24.25;11.20;;;;;;;2.09;100.00;99543.88;20772890;28;20046;-80
2023/01/19 13:01:17;;;;;;;23.35;11.38;;;;;;;2.12;100.00;99546.47;20774019;28;20045;-79
2023/01/19 13:11:19;;;;;;;24.17;10.55;;;;;;;2.22;100.00;99545.66;20740305;28;20064;-79
2023/01/19 13:21:21;;;;;;;19.83;9.98;;;;;;;2.40;100.00;99538.84;20744278;28;20069;-79
2023/01/19 13:31:22;;;;;;;19.80;10.00;;;;;;;2.07;100.00;99540.44;20774734;28;20049;-80
2023/01/19 13:41:24;;;;;;;24.05;10.30;;;;;;;2.10;100.00;99524.94;20793576;28;20041;-79
2023/01/19 13:51:25;;;;;;;22.95;10.40;;;;;;;1.89;100.00;99537.75;20763817;28;20128;-81
2023/01/19 14:01:26;;;;;;;19.63;8.32;;;;;;;1.97;100.00;99523.16;20788041;28;20041;-81
2023/01/19 14:11:29;;;;;;;21.60;10.18;;;;;;;2.15;100.00;99532.69;20771027;28;20076;-81
2023/01/19 14:21:31;;;;;;;20.75;8.57;;;;;;;2.29;100.00;99546.53;20788971;28;20054;-79
2023/01/19 14:31:32;;;;;;;17.50;6.97;;;;;;;2.48;100.00;99542.28;20781885;28;20045;-80
2023/01/19 14:41:34;;;;;;;13.90;5.10;;;;;;;2.17;100.00;99539.59;20772409;28;20081;-80
2023/01/19 14:51:35;;;;;;;8.90;4.32;;;;;;;2.14;100.00;99546.47;20776211;28;20061;-78
2023/01/19 15:01:36;;;;;;;9.80;4.60;;;;;;;2.01;100.00;99551.59;20751158;28;20065;-80
2023/01/19 15:11:38;;;;;;;14.88;5.30;;;;;;;2.02;100.00;99552.44;20740764;28;20049;-80
2023/01/19 15:21:44;;;;;;;10.23;4.22;;;;;;;1.89;100.00;99556.69;20751671;28;20045;-81
2023/01/19 15:31:45;;;;;;;8.55;4.03;;;;;;;1.89;100.00;99558.41;20755263;28;20046;-81
2023/01/19 15:41:46;;;;;;;11.52;4.90;;;;;;;1.90;100.00;99560.13;20766660;28;20072;-81
2023/01/19 16:02:34;;;;;;;15.27;7.40;;;;;;;1.63;100.00;99572.00;20784047;28;20450;-82
2023/01/19 16:12:35;;;;;;;15.73;8.00;;;;;;;1.60;100.00;99584.88;20792316;28;20137;-80
2023/01/19 16:22:37;;;;;;;14.02;6.88;;;;;;;1.50;100.00;99577.94;20774049;28;20057;-80
2023/01/19 16:32:38;;;;;;;18.13;8.80;;;;;;;1.32;100.00;99582.94;20785978;28;20050;-79
2023/01/19 16:42:40;;;;;;;18.75;9.77;;;;;;;1.19;100.00;99581.94;20793939;28;20054;-80
2023/01/19 16:52:41;;;;;;;20.38;11.93;;;;;;;1.03;100.00;99588.69;20790956;28;20670;-79
2023/01/19 17:02:43;;;;;;;20.90;11.52;;;;;;;0.94;100.00;99586.88;20768362;28;20054;-79
2023/01/19 17:12:44;;;;;;;20.42;12.10;;;;;;;0.77;100.00;99583.28;20799184;28;20058;-79
2023/01/19 17:22:45;;;;;;;25.25;12.32;;;;;;;0.50;100.00;99591.56;20758895;28;20056;-78
2023/01/19 17:32:47;;;;;;;22.05;11.38;;;;;;;0.40;100.00;99592.31;20745117;28;20100;-78
2023/01/19 17:42:48;;;;;;;29.45;14.48;;;;;;;0.38;100.00;99604.28;20794529;28;20050;-79
2023/01/19 17:52:50;;;;;;;131.70;60.22;;;;;;;0.19;100.00;99616.94;20762761;28;20054;-79
2023/01/19 18:02:51;;;;;;;71.70;36.42;;;;;;;0.10;100.00;99613.38;20787056;28;20064;-79
2023/01/19 18:12:52;;;;;;;30.33;15.50;;;;;;;0.24;100.00;99620.44;20774731;28;20084;-79
2023/01/19 18:22:54;;;;;;;32.83;15.18;;;;;;;0.33;100.00;99622.25;20745320;28;20060;-79
2023/01/19 18:32:55;;;;;;;28.23;14.70;;;;;;;0.35;100.00;99625.72;20770072;28;20080;-79
2023/01/19 18:42:56;;;;;;;32.75;17.70;;;;;;;0.44;100.00;99630.13;20765765;28;20081;-79
2023/01/19 18:52:58;;;;;;;32.75;18.05;;;;;;;0.53;100.00;99632.81;20801871;28;20050;-79
2023/01/19 19:02:59;;;;;;;27.65;17.88;;;;;;;0.57;100.00;99626.84;20754997;28;20391;-79
2023/01/19 19:13:00;;;;;;;44.78;23.13;;;;;;;0.58;100.00;99632.88;20780459;28;20049;-79
2023/01/19 19:23:02;;;;;;;37.92;20.27;;;;;;;0.60;100.00;99626.88;20785287;28;20517;-78
2023/01/19 19:43:49;;;;;;;33.92;17.15;;;;;;;0.60;100.00;99626.88;20777001;28;20041;-78
2023/01/19 19:54:05;;;;;;;27.83;14.85;;;;;;;0.59;100.00;99639.75;20766779;28;20054;-79
2023/01/19 20:04:06;;;;;;;25.88;13.43;;;;;;;0.59;100.00;99632.88;20795797;28;20049;-79
2023/01/19 20:14:08;;;;;;;21.90;12.55;;;;;;;0.67;100.00;99635.53;20773772;28;20045;-78
2023/01/19 20:24:13;;;;;;;22.88;12.18;;;;;;;0.70;100.00;99648.47;20806875;28;20046;-79
2023/01/19 20:34:19;;;;;;;22.13;12.30;;;;;;;0.70;100.00;99654.47;20814297;28;20049;-80
2023/01/19 20:44:21;;;;;;;37.55;18.25;;;;;;;0.70;100.00;99659.63;20866968;23;20038;-80
2023/01/19 20:54:25;;;;;;;25.85;13.85;;;;;;;0.69;100.00;99657.91;20852663;28;20064;-79
2023/01/19 21:04:26;;;;;;;26.52;15.27;;;;;;;0.69;100.00;99665.63;20846175;28;20053;-79
2023/01/19 21:25:14;;;;;;;30.10;16.30;;;;;;;0.72;100.00;99694.03;20850902;28;20034;-79
2023/01/19 21:35:15;;;;;;;31.33;16.67;;;;;;;0.76;100.00;99706.06;20845334;28;20049;-79
2023/01/19 21:45:19;;;;;;;27.05;14.77;;;;;;;0.76;100.00;99710.38;20820719;28;20056;-78
2023/01/19 21:55:22;;;;;;;25.10;13.32;;;;;;;0.75;100.00;99717.22;20843628;28;20149;-79
2023/01/19 22:05:24;;;;;;;;;;;;;;;0.80;100.00;99719.00;20820885;28;20552;-79
2023/01/19 22:15:30;;;;;;;42.35;20.15;;;;;;;0.83;100.00;99727.66;20823105;28;19921;-79
2023/01/19 22:25:31;;;;;;;32.58;17.38;;;;;;;0.77;100.00;99741.31;20839698;28;20494;-79
2023/01/19 22:35:32;;;;;;;27.55;15.32;;;;;;;0.72;100.00;99727.53;20835498;23;20080;-72
2023/01/19 22:45:34;;;;;;;30.63;16.25;;;;;;;0.61;100.00;99741.94;20847707;28;20053;-71
2023/01/19 22:55:35;;;;;;;30.50;15.60;;;;;;;0.53;100.00;99733.28;20848228;28;20409;-72
2023/01/19 23:05:36;;;;;;;29.92;16.10;;;;;;;0.25;100.00;99740.59;20848227;28;20448;-71
2023/01/19 23:15:37;;;;;;;30.95;16.08;;;;;;;-0.03;100.00;99748.72;20851686;28;20052;-71
2023/01/19 23:25:39;;;;;;;27.52;16.02;;;;;;;-0.29;100.00;99755.97;20842677;28;20056;-71
2023/01/19 23:35:40;;;;;;;30.52;16.52;;;;;;;-0.45;100.00;99752.28;20853411;28;20057;-68
2023/01/19 23:45:41;;;;;;;28.13;15.90;;;;;;;-0.59;100.00;99766.59;20840392;28;20063;-69
2023/01/19 23:55:43;;;;;;;34.67;16.52;;;;;;;-0.67;100.00;99765.56;20852239;28;20072;-70
